Brzeg, Poland
Current Conditions -  °F | °C
As of 7:30 AM on Thursday 23 Oct 2014 (Local Time) from EPWR Reporting Station
Light Rain Light Rain  
Wind Chill: 41°   Ceiling: 700
Heat Index: 46°   Visibility: 3mi
Dew Point: 43°   Wind: 10mph
Humidity: 87%   Direction: 10°N
Pressure: 29.94"   Gusts: NA
Location:  50.85°N, 17.47°E
Report Text: EPWR 230530Z 01009KT 5000 -RA BR BKN007 08/06 Q1014
Loading
Personal Weather Stations






























Interactive Weather Map
Tropical Storm Tracking
New forecast layout! Learn more

10-Day Weather Forecast

Advertisements
Track Severe Weather on mobile